createdAt,value
2023-05-15T00:00:59.062Z,9.43
2023-05-15T00:03:29.130Z,9.43
2023-05-15T00:05:58.971Z,7.72
2023-05-15T00:08:28.345Z,8.55
2023-05-15T00:11:01.386Z,7.07
2023-05-15T00:13:31.336Z,8.13
2023-05-15T00:16:00.504Z,8.50
2023-05-15T00:18:29.714Z,10.88
2023-05-15T00:20:58.871Z,8.30
2023-05-15T00:23:30.993Z,9.52
2023-05-15T00:26:00.202Z,11.35
2023-05-15T00:28:29.304Z,10.55
2023-05-15T00:30:58.496Z,8.73
2023-05-15T00:33:29.012Z,8.93
2023-05-15T00:35:58.535Z,9.30
2023-05-15T00:38:27.941Z,7.15
2023-05-15T00:40:58.104Z,8.32
2023-05-15T00:43:29.478Z,8.75
2023-05-15T00:46:01.363Z,10.40
2023-05-15T00:48:32.835Z,8.93
2023-05-15T00:51:02.689Z,9.15
2023-05-15T00:53:32.063Z,9.32
2023-05-15T00:56:02.221Z,8.23
2023-05-15T00:58:32.951Z,9.55
2023-05-15T01:01:02.164Z,10.02
2023-05-15T01:03:32.276Z,10.82
2023-05-15T01:06:01.703Z,9.35
2023-05-15T01:08:50.735Z,8.80
2023-05-15T01:11:22.117Z,7.80
2023-05-15T01:13:51.256Z,9.15
2023-05-15T01:16:23.405Z,8.65
2023-05-15T01:18:52.703Z,7.72
2023-05-15T01:21:38.995Z,8.52
2023-05-15T01:24:29.346Z,8.73
2023-05-15T01:27:25.601Z,7.97
2023-05-15T01:30:05.903Z,8.45
2023-05-15T01:33:18.526Z,11.57
2023-05-15T01:36:35.128Z,9.13
2023-05-15T01:39:07.081Z,7.68
2023-05-15T01:42:09.079Z,8.43
2023-05-15T01:44:50.509Z,8.60
2023-05-15T01:47:36.738Z,8.40
2023-05-15T01:50:08.439Z,7.65
2023-05-15T01:52:44.197Z,8.18
2023-05-15T01:55:16.630Z,8.95
2023-05-15T01:57:52.012Z,9.15
2023-05-15T02:00:29.431Z,9.23
2023-05-15T02:03:09.158Z,10.10
2023-05-15T02:05:42.873Z,9.45
2023-05-15T02:08:20.615Z,10.55
2023-05-15T02:10:54.554Z,10.25
2023-05-15T02:13:28.116Z,9.55
2023-05-15T02:15:59.730Z,9.88
2023-05-15T02:18:30.105Z,10.82
2023-05-15T02:21:01.993Z,12.43
2023-05-15T02:23:31.511Z,10.70
2023-05-15T02:26:37.123Z,10.10
2023-05-15T02:29:43.906Z,9.90
2023-05-15T02:33:11.623Z,10.13
2023-05-15T02:38:37.217Z,11.90
2023-05-15T02:43:39.653Z,13.25
2023-05-15T02:46:10.189Z,12.50
2023-05-15T02:48:44.772Z,10.57
2023-05-15T02:51:15.580Z,11.07
2023-05-15T02:53:45.616Z,10.85
2023-05-15T02:56:14.844Z,9.95
2023-05-15T02:58:44.165Z,11.25
2023-05-15T03:01:13.598Z,12.05
2023-05-15T03:03:42.731Z,11.65
2023-05-15T03:06:11.884Z,10.23
2023-05-15T03:08:41.399Z,10.23
2023-05-15T03:11:10.554Z,10.30
2023-05-15T03:13:39.709Z,9.57
2023-05-15T03:16:09.172Z,10.25
2023-05-15T03:18:38.388Z,10.77
2023-05-15T03:21:07.740Z,10.35
2023-05-15T03:23:37.865Z,10.43
2023-05-15T03:26:07.402Z,10.60
2023-05-15T03:28:36.540Z,10.93
2023-05-15T03:31:11.677Z,10.20
2023-05-15T03:33:41.802Z,10.18
2023-05-15T03:36:11.136Z,9.80
2023-05-15T03:38:40.245Z,10.05
2023-05-15T03:41:09.347Z,9.65
2023-05-15T03:43:38.460Z,9.32
2023-05-15T03:46:07.959Z,9.85
2023-05-15T03:48:37.126Z,9.52
2023-05-15T03:51:06.419Z,8.95
2023-05-15T03:53:35.620Z,10.50
2023-05-15T03:56:04.916Z,9.43
2023-05-15T03:58:34.035Z,9.00
2023-05-15T04:01:03.229Z,9.15
2023-05-15T04:03:32.426Z,9.32
2023-05-15T04:06:01.715Z,9.25
2023-05-15T04:08:30.895Z,9.50
2023-05-15T04:11:00.047Z,8.93
2023-05-15T04:13:29.292Z,10.13
2023-05-15T04:16:00.708Z,8.82
2023-05-15T04:18:29.902Z,9.15
2023-05-15T04:20:59.011Z,9.05
2023-05-15T04:23:28.296Z,9.38
2023-05-15T04:25:57.901Z,8.95
2023-05-15T04:30:56.246Z,9.57
2023-05-15T04:33:25.432Z,8.82
2023-05-15T04:35:54.872Z,9.85
2023-05-15T04:38:24.027Z,9.75
2023-05-15T04:40:53.203Z,9.30
2023-05-15T04:43:22.332Z,9.18
2023-05-15T04:45:51.738Z,9.63
2023-05-15T04:48:20.991Z,9.02
2023-05-15T04:50:50.111Z,9.65
2023-05-15T04:53:19.278Z,9.82
2023-05-15T04:55:48.531Z,9.95
2023-05-15T04:58:17.724Z,9.98
2023-05-15T05:00:46.988Z,9.73
2023-05-15T05:03:16.319Z,10.52
2023-05-15T05:05:45.625Z,10.38
2023-05-15T05:08:14.850Z,10.10
2023-05-15T05:10:43.963Z,10.43
2023-05-15T05:13:13.137Z,9.50
2023-05-15T05:15:42.364Z,11.18
2023-05-15T05:18:11.948Z,11.00
2023-05-15T05:20:41.167Z,10.77
2023-05-15T05:23:10.365Z,10.52
2023-05-15T05:25:39.512Z,10.73
2023-05-15T05:28:08.681Z,10.88
2023-05-15T05:30:37.833Z,10.50
2023-05-15T05:33:07.363Z,12.60
2023-05-15T05:35:36.544Z,11.48
2023-05-15T05:38:06.046Z,11.07
2023-05-15T05:40:35.245Z,10.65
2023-05-15T05:43:05.033Z,10.68
2023-05-15T05:45:34.146Z,10.18
2023-05-15T05:48:03.434Z,10.55
2023-05-15T05:50:32.701Z,9.80
2023-05-15T05:53:01.882Z,10.65
2023-05-15T05:55:31.042Z,11.43
2023-05-15T05:58:01.213Z,11.15
2023-05-15T06:00:30.823Z,10.52
2023-05-15T06:03:01.667Z,10.75
2023-05-15T06:05:31.208Z,11.15
2023-05-15T06:08:02.076Z,10.65
2023-05-15T06:10:31.809Z,10.30
2023-05-15T06:13:00.900Z,10.88
2023-05-15T06:15:30.205Z,9.80
2023-05-15T06:17:59.391Z,10.85
2023-05-15T06:20:28.930Z,11.32
2023-05-15T06:22:58.252Z,11.00
2023-05-15T06:25:27.495Z,11.07
2023-05-15T06:27:56.813Z,10.65
2023-05-15T06:30:26.226Z,10.32
2023-05-15T06:32:57.283Z,11.13
2023-05-15T06:35:26.484Z,12.23
2023-05-15T06:37:57.811Z,11.27
2023-05-15T06:40:28.139Z,11.13
2023-05-15T06:42:57.344Z,11.40
2023-05-15T06:45:26.743Z,10.45
2023-05-15T06:47:56.588Z,11.55
2023-05-15T06:50:26.877Z,10.77
2023-05-15T06:52:56.148Z,11.40
2023-05-15T06:55:25.450Z,11.02
2023-05-15T06:57:54.921Z,10.73
2023-05-15T07:00:24.163Z,11.00
2023-05-15T07:02:53.326Z,11.75
2023-05-15T07:05:23.200Z,10.73
2023-05-15T07:07:53.025Z,11.10
2023-05-15T07:10:22.189Z,11.15
2023-05-15T07:12:51.423Z,12.43
2023-05-15T07:15:20.630Z,11.10
2023-05-15T07:17:49.854Z,10.70
2023-05-15T07:20:19.181Z,11.43
2023-05-15T07:22:55.773Z,12.15
2023-05-15T07:25:26.990Z,11.82
2023-05-15T07:27:56.399Z,11.25
2023-05-15T07:30:26.602Z,11.80
2023-05-15T07:32:56.325Z,12.25
2023-05-15T07:35:25.742Z,11.82
2023-05-15T07:37:55.126Z,11.10
2023-05-15T07:40:24.502Z,11.43
2023-05-15T07:42:53.616Z,11.30
2023-05-15T07:45:23.134Z,11.60
2023-05-15T07:47:52.850Z,12.02
2023-05-15T07:50:22.371Z,12.27
2023-05-15T07:52:51.519Z,11.55
2023-05-15T07:55:20.873Z,11.40
2023-05-15T07:57:53.453Z,11.82
2023-05-15T08:00:23.424Z,11.20
2023-05-15T08:02:52.792Z,12.45
2023-05-15T08:05:22.174Z,11.32
2023-05-15T08:07:51.827Z,11.13
2023-05-15T08:10:20.996Z,11.50
2023-05-15T08:12:51.539Z,11.68
2023-05-15T08:15:20.676Z,11.88
2023-05-15T08:17:49.845Z,11.10
2023-05-15T08:20:19.353Z,11.90
2023-05-15T08:22:48.630Z,11.07
2023-05-15T08:25:17.890Z,11.50
2023-05-15T08:27:47.105Z,11.38
2023-05-15T08:30:16.470Z,11.45
2023-05-15T08:32:49.904Z,10.68
2023-05-15T08:35:19.172Z,11.45
2023-05-15T08:37:48.410Z,11.50
2023-05-15T08:40:19.823Z,11.20
2023-05-15T08:42:56.693Z,10.82
2023-05-15T08:45:27.318Z,11.05
2023-05-15T08:48:01.881Z,11.82
2023-05-15T08:50:31.678Z,11.98
2023-05-15T08:53:02.626Z,10.48
2023-05-15T08:55:31.838Z,11.10
2023-05-15T08:58:01.869Z,11.00
2023-05-15T09:00:32.363Z,10.10
2023-05-15T09:03:04.993Z,10.60
2023-05-15T09:05:34.528Z,10.75
2023-05-15T09:08:09.684Z,10.95
2023-05-15T09:10:39.021Z,11.38
2023-05-15T09:13:09.233Z,11.65
2023-05-15T09:15:39.720Z,11.55
2023-05-15T09:18:10.068Z,10.77
2023-05-15T09:20:40.458Z,12.20
2023-05-15T09:23:27.465Z,11.07
2023-05-15T09:25:58.485Z,10.07
2023-05-15T09:28:34.836Z,11.25
2023-05-15T09:31:06.190Z,11.50
2023-05-15T09:33:41.842Z,11.23
2023-05-15T09:36:11.741Z,12.07
2023-05-15T09:38:49.160Z,10.30
2023-05-15T09:41:27.814Z,11.32
2023-05-15T09:43:59.881Z,10.82
2023-05-15T09:46:29.333Z,11.43
2023-05-15T09:48:58.686Z,11.48
2023-05-15T09:51:29.803Z,12.00
2023-05-15T09:53:59.334Z,10.93
2023-05-15T09:56:28.480Z,11.25
2023-05-15T09:59:03.351Z,11.15
2023-05-15T10:01:32.515Z,11.95
2023-05-15T10:04:07.697Z,12.57
2023-05-15T10:06:43.191Z,11.63
2023-05-15T10:09:15.044Z,12.10
2023-05-15T10:11:54.132Z,11.55
2023-05-15T10:14:25.846Z,12.50
2023-05-15T10:16:58.174Z,12.32
2023-05-15T10:19:29.881Z,11.50
2023-05-15T10:22:01.814Z,11.48
2023-05-15T10:24:33.693Z,12.13
2023-05-15T10:27:04.506Z,12.23
2023-05-15T10:29:35.127Z,11.23
2023-05-15T10:32:05.968Z,11.40
2023-05-15T10:34:36.044Z,11.52
2023-05-15T10:37:07.322Z,13.15
2023-05-15T10:39:42.063Z,12.48
2023-05-15T10:42:12.986Z,13.02
2023-05-15T10:44:42.044Z,12.13
2023-05-15T10:47:12.082Z,12.80
2023-05-15T10:49:41.398Z,12.32
2023-05-15T10:52:11.541Z,12.65
2023-05-15T10:54:41.154Z,12.60
2023-05-15T10:57:11.478Z,12.85
2023-05-15T10:59:42.380Z,11.95
2023-05-15T11:02:31.344Z,13.07
2023-05-15T11:05:03.472Z,12.82
2023-05-15T11:07:32.613Z,13.20
2023-05-15T11:10:01.818Z,13.63
2023-05-15T11:12:59.714Z,13.15
2023-05-15T11:15:28.935Z,12.27
2023-05-15T11:18:07.156Z,14.43
2023-05-15T11:20:43.849Z,13.15
2023-05-15T11:23:12.933Z,13.55
2023-05-15T11:25:42.317Z,13.68
2023-05-15T11:28:30.793Z,13.10
2023-05-15T11:31:08.999Z,14.27
2023-05-15T11:33:41.712Z,14.25
2023-05-15T11:36:12.632Z,13.82
2023-05-15T11:38:42.055Z,14.07
2023-05-15T11:41:24.903Z,15.18
2023-05-15T11:43:54.123Z,13.13
2023-05-15T11:46:24.568Z,14.02
2023-05-15T11:48:54.237Z,13.60
2023-05-15T11:51:28.460Z,14.10
2023-05-15T11:53:58.455Z,14.60
2023-05-15T11:56:29.435Z,14.80
2023-05-15T11:59:02.172Z,15.15
2023-05-15T12:01:48.220Z,15.32
2023-05-15T12:04:19.480Z,16.55
2023-05-15T12:06:50.491Z,17.00
2023-05-15T12:09:22.660Z,16.98
2023-05-15T12:11:55.979Z,16.42
2023-05-15T12:14:34.556Z,17.92
2023-05-15T12:17:05.448Z,17.08
2023-05-15T12:19:36.919Z,17.00
2023-05-15T12:22:09.475Z,15.88
2023-05-15T12:24:40.783Z,17.42
2023-05-15T12:27:11.128Z,17.90
2023-05-15T12:29:42.075Z,19.77
2023-05-15T12:32:12.096Z,19.17
2023-05-15T12:34:42.044Z,18.85
2023-05-15T12:37:15.100Z,17.55
2023-05-15T12:40:13.225Z,17.80
2023-05-15T12:42:47.356Z,18.00
2023-05-15T12:45:21.665Z,18.02
2023-05-15T12:47:52.372Z,20.73
2023-05-15T12:50:24.185Z,19.40
2023-05-15T12:52:56.757Z,19.60
2023-05-15T12:55:35.274Z,18.33
2023-05-15T12:58:11.242Z,19.50
2023-05-15T13:00:43.345Z,17.52
2023-05-15T13:03:14.918Z,17.65
2023-05-15T13:05:47.357Z,19.85
2023-05-15T13:08:20.579Z,20.60
2023-05-15T13:10:59.407Z,20.08
2023-05-15T13:13:51.460Z,19.40
2023-05-15T13:16:23.735Z,20.25
2023-05-15T13:18:54.017Z,18.55
2023-05-15T13:21:23.281Z,18.73
2023-05-15T13:23:53.902Z,19.38
2023-05-15T13:26:23.655Z,19.95
2023-05-15T13:28:52.768Z,21.58
2023-05-15T13:31:22.149Z,26.90
2023-05-15T13:33:51.616Z,25.00
2023-05-15T13:36:21.007Z,21.30
2023-05-15T13:38:50.071Z,20.25
2023-05-15T13:41:19.232Z,20.10
2023-05-15T13:43:50.212Z,18.85
2023-05-15T13:46:19.330Z,19.45
2023-05-15T13:48:48.413Z,20.17
2023-05-15T13:51:17.565Z,19.00
2023-05-15T13:53:46.713Z,19.60
2023-05-15T13:56:15.830Z,19.90
2023-05-15T13:58:45.015Z,21.27
2023-05-15T14:01:14.177Z,20.88
2023-05-15T14:03:43.340Z,20.83
2023-05-15T14:06:12.543Z,20.73
2023-05-15T14:08:41.683Z,19.92
2023-05-15T14:11:19.800Z,20.65
2023-05-15T14:13:49.011Z,22.23
2023-05-15T14:16:18.087Z,21.48
2023-05-15T14:18:47.444Z,20.08
2023-05-15T14:21:16.637Z,21.20
2023-05-15T14:23:45.700Z,21.40
2023-05-15T14:26:14.805Z,20.48
2023-05-15T14:28:44.076Z,20.17
2023-05-15T14:31:13.341Z,20.98
2023-05-15T14:33:43.155Z,21.73
2023-05-15T14:36:12.254Z,21.10
2023-05-15T14:38:41.415Z,21.05
2023-05-15T14:41:10.561Z,22.10
2023-05-15T14:43:39.714Z,22.17
2023-05-15T14:46:11.264Z,21.52
2023-05-15T14:48:40.651Z,22.50
2023-05-15T14:51:09.728Z,21.38
2023-05-15T14:53:38.883Z,21.77
2023-05-15T14:56:08.305Z,22.00
2023-05-15T14:58:37.383Z,21.15
2023-05-15T15:01:06.918Z,21.67
2023-05-15T15:03:36.106Z,22.05
2023-05-15T15:06:05.410Z,23.63
2023-05-15T15:08:34.452Z,24.25
2023-05-15T15:11:03.691Z,22.52
2023-05-15T15:13:32.857Z,22.08
2023-05-15T15:16:01.979Z,21.92
2023-05-15T15:18:31.225Z,22.20
2023-05-15T15:21:00.397Z,22.02
2023-05-15T15:23:29.547Z,23.10
2023-05-15T15:25:58.675Z,23.08
2023-05-15T15:28:30.186Z,22.67
2023-05-15T15:30:59.273Z,23.50
2023-05-15T15:33:29.471Z,24.52
2023-05-15T15:35:58.652Z,23.60
2023-05-15T15:38:27.807Z,25.98
2023-05-15T15:40:57.312Z,24.65
2023-05-15T15:43:26.687Z,25.88
2023-05-15T15:45:56.172Z,25.23
2023-05-15T15:48:25.409Z,25.10
2023-05-15T15:50:54.628Z,25.40
2023-05-15T15:53:24.386Z,24.92
2023-05-15T15:55:53.574Z,24.58
2023-05-15T15:58:23.826Z,24.80
2023-05-15T16:00:52.996Z,24.40
2023-05-15T16:03:25.751Z,24.42
2023-05-15T16:05:55.002Z,24.27
2023-05-15T16:08:27.284Z,25.77
2023-05-15T16:10:56.562Z,24.23
2023-05-15T16:13:25.744Z,25.23
2023-05-15T16:15:55.072Z,24.88
2023-05-15T16:18:24.342Z,25.83
2023-05-15T16:20:53.556Z,24.33
2023-05-15T16:23:22.788Z,24.75
2023-05-15T16:25:52.227Z,23.27
2023-05-15T16:28:22.148Z,24.83
2023-05-15T16:30:54.869Z,22.38
2023-05-15T16:33:24.923Z,24.00
2023-05-15T16:35:54.368Z,23.10
2023-05-15T16:38:23.882Z,24.23
2023-05-15T16:40:53.185Z,23.17
2023-05-15T16:43:22.809Z,23.90
2023-05-15T16:45:52.075Z,25.10
2023-05-15T16:48:21.293Z,23.55
2023-05-15T16:50:50.584Z,24.23
2023-05-15T16:53:19.907Z,22.23
2023-05-15T16:55:49.703Z,23.63
2023-05-15T16:58:18.853Z,22.50
2023-05-15T17:00:55.889Z,22.63
2023-05-15T17:03:25.249Z,22.10
2023-05-15T17:05:54.544Z,22.67
2023-05-15T17:08:23.708Z,21.50
2023-05-15T17:10:53.166Z,22.92
2023-05-15T17:13:22.734Z,22.02
2023-05-15T17:15:52.175Z,22.30
2023-05-15T17:18:22.946Z,23.38
2023-05-15T17:20:52.425Z,22.08
2023-05-15T17:23:23.025Z,21.60
2023-05-15T17:25:52.504Z,22.17
2023-05-15T17:28:21.758Z,21.35
2023-05-15T17:30:51.521Z,22.10
2023-05-15T17:33:20.720Z,22.25
2023-05-15T17:35:49.852Z,21.35
2023-05-15T17:38:19.070Z,22.30
2023-05-15T17:40:49.836Z,23.88
2023-05-15T17:43:18.996Z,20.35
2023-05-15T17:45:48.266Z,19.48
2023-05-15T17:48:17.517Z,21.70
2023-05-15T17:50:47.289Z,21.30
2023-05-15T17:53:16.566Z,20.55
2023-05-15T17:55:46.223Z,22.00
2023-05-15T17:58:15.416Z,20.58
2023-05-15T18:00:44.863Z,20.92
2023-05-15T18:03:14.077Z,20.70
2023-05-15T18:05:43.341Z,21.40
2023-05-15T18:08:12.457Z,21.08
2023-05-15T18:10:41.717Z,21.27
2023-05-15T18:13:11.078Z,21.75
2023-05-15T18:15:40.698Z,22.27
2023-05-15T18:18:10.095Z,21.90
2023-05-15T18:20:39.296Z,20.90
2023-05-15T18:23:08.450Z,21.33
2023-05-15T18:25:37.939Z,20.55
2023-05-15T18:28:07.325Z,20.80
2023-05-15T18:30:37.030Z,20.27
2023-05-15T18:33:06.645Z,20.38
2023-05-15T18:35:37.728Z,19.35
2023-05-15T18:38:07.962Z,21.27
2023-05-15T18:40:37.225Z,20.50
2023-05-15T18:43:06.469Z,20.10
2023-05-15T18:45:35.820Z,21.13
2023-05-15T18:48:05.295Z,20.90
2023-05-15T18:50:34.673Z,20.75
2023-05-15T18:53:04.145Z,20.35
2023-05-15T18:55:33.297Z,21.17
2023-05-15T18:58:02.424Z,20.65
2023-05-15T19:00:38.104Z,20.98
2023-05-15T19:03:09.655Z,22.05
2023-05-15T19:05:39.090Z,21.23
2023-05-15T19:08:08.275Z,19.95
2023-05-15T19:10:37.398Z,20.45
2023-05-15T19:13:07.176Z,19.17
2023-05-15T19:15:36.420Z,20.60
2023-05-15T19:18:05.803Z,20.02
2023-05-15T19:20:36.437Z,21.45
2023-05-15T19:23:05.556Z,25.55
2023-05-15T19:25:34.680Z,22.30
2023-05-15T19:28:03.876Z,21.27
2023-05-15T19:30:34.248Z,21.17
2023-05-15T19:33:03.941Z,21.23
2023-05-15T19:35:34.595Z,21.50
2023-05-15T19:38:05.787Z,21.45
2023-05-15T19:40:37.109Z,20.60
2023-05-15T19:43:06.285Z,21.30
2023-05-15T19:45:35.308Z,21.15
2023-05-15T19:48:04.446Z,21.42
2023-05-15T19:50:33.520Z,20.83
2023-05-15T19:53:02.603Z,20.80
2023-05-15T19:55:31.675Z,21.27
2023-05-15T19:58:00.876Z,20.67
2023-05-15T20:00:30.082Z,21.30
2023-05-15T20:02:59.306Z,20.00
2023-05-15T20:05:29.368Z,20.80
2023-05-15T20:07:58.586Z,20.50
2023-05-15T20:10:27.874Z,20.10
2023-05-15T20:12:57.134Z,20.63
2023-05-15T20:15:29.501Z,21.52
2023-05-15T20:17:59.182Z,21.40
2023-05-15T20:20:28.607Z,21.20
2023-05-15T20:22:58.032Z,22.00
2023-05-15T20:25:27.333Z,21.73
2023-05-15T20:27:59.502Z,22.95
2023-05-15T20:30:29.697Z,23.33
2023-05-15T20:32:59.469Z,22.85
2023-05-15T20:35:28.826Z,22.63
2023-05-15T20:37:58.514Z,23.38
2023-05-15T20:40:28.322Z,22.67
2023-05-15T20:42:58.050Z,22.67
2023-05-15T20:45:27.642Z,23.98
2023-05-15T20:47:56.836Z,24.73
2023-05-15T20:50:27.016Z,22.65
2023-05-15T20:52:56.666Z,23.23
2023-05-15T20:55:25.846Z,23.75
2023-05-15T20:57:55.285Z,23.60
2023-05-15T21:00:24.817Z,23.42
2023-05-15T21:02:54.320Z,23.80
2023-05-15T21:05:23.954Z,24.15
2023-05-15T21:07:53.234Z,24.13
2023-05-15T21:10:22.445Z,22.30
2023-05-15T21:12:51.932Z,22.95
2023-05-15T21:15:21.187Z,23.50
2023-05-15T21:17:50.377Z,22.27
2023-05-15T21:20:19.638Z,24.15
2023-05-15T21:22:48.841Z,24.63
2023-05-15T21:25:20.027Z,23.35
2023-05-15T21:27:49.233Z,23.58
2023-05-15T21:30:18.464Z,24.17
2023-05-15T21:32:48.178Z,23.30
2023-05-15T21:35:17.672Z,23.42
2023-05-15T21:37:47.355Z,24.45
2023-05-15T21:40:16.953Z,24.27
2023-05-15T21:42:46.892Z,24.65
2023-05-15T21:45:16.116Z,23.60
2023-05-15T21:47:45.336Z,24.02
2023-05-15T21:50:14.528Z,25.92
2023-05-15T21:52:43.685Z,25.38
2023-05-15T21:55:13.153Z,26.20
2023-05-15T21:57:42.663Z,25.13
2023-05-15T22:00:12.807Z,25.15
2023-05-15T22:02:42.140Z,24.10
2023-05-15T22:05:11.536Z,24.98
2023-05-15T22:07:41.309Z,25.73
2023-05-15T22:10:14.727Z,25.55
2023-05-15T22:12:45.325Z,26.00
2023-05-15T22:15:15.912Z,26.30
2023-05-15T22:17:45.182Z,27.15
2023-05-15T22:20:14.946Z,25.88
2023-05-15T22:22:44.679Z,28.30
2023-05-15T22:25:14.061Z,28.67
2023-05-15T22:27:43.643Z,27.80
2023-05-15T22:30:13.829Z,26.27
2023-05-15T22:32:44.092Z,26.73
2023-05-15T22:35:14.194Z,33.33
2023-05-15T22:37:43.385Z,30.92
2023-05-15T22:40:13.843Z,29.65
2023-05-15T22:42:43.061Z,29.35
2023-05-15T22:45:12.736Z,37.28
2023-05-15T22:47:41.884Z,38.05
2023-05-15T22:50:11.817Z,31.98
2023-05-15T22:52:41.209Z,29.88
2023-05-15T22:55:11.916Z,27.38
2023-05-15T22:57:41.390Z,27.25
2023-05-15T23:00:11.158Z,27.13
2023-05-15T23:02:42.620Z,27.08
2023-05-15T23:05:13.571Z,27.00
2023-05-15T23:07:42.760Z,26.65
2023-05-15T23:10:12.360Z,28.65
2023-05-15T23:12:42.022Z,28.05
2023-05-15T23:15:11.958Z,28.98
2023-05-15T23:17:41.820Z,28.58
2023-05-15T23:20:11.517Z,28.27
2023-05-15T23:22:40.738Z,28.95
2023-05-15T23:25:10.404Z,29.55
2023-05-15T23:27:39.586Z,29.50
2023-05-15T23:30:09.851Z,28.67
2023-05-15T23:32:39.758Z,29.42
2023-05-15T23:35:09.419Z,28.65
2023-05-15T23:37:38.589Z,27.63
2023-05-15T23:40:08.703Z,29.00
2023-05-15T23:42:37.908Z,28.52
2023-05-15T23:45:08.042Z,29.05
2023-05-15T23:47:40.462Z,30.83
2023-05-15T23:50:10.410Z,27.88
2023-05-15T23:52:39.460Z,29.42
2023-05-15T23:55:09.483Z,26.55
2023-05-15T23:57:38.593Z,28.35
